Lynchburg Regional Preston Glenn Field
KLYH : now visible

Airfield :











YOU CAN JOIN US ON...

 
LOGIN :

Register | Disclaimer

   EN    FR    IT 

 









Legend :    VFR   Marginal VFR   IFR   Intensive IFR   Very Intensive IFR
Visi :
Ceiling :
>= 8 km
>= 3000ft
5 to 8 km
1000 to 3000 ft
1500m to 5 km
500 to 1000 ft
800 to 1500m
200 to 500 ft
< 800m
< 200 ft
Symbols :   Thunderstorms  Fog  Heavy snow  Heavy precipitations  Wind > 20 kt






- Airport Elevation : 938 ft
- IATA code : LYH


KLYH - Lynchburg Regional Preston Glenn Field

CURRENT METAR :
  • 251854Z 03012G17KT 10SM OVC009 09/07 A3013 RMK AO2 CIG 008V012 SLP200 T00940072

EXPIRED METARs :
  • 251820Z 03008KT 10SM OVC009 10/07 A3013 RMK AO2 T01000072
  • 251754Z 04011KT 10SM OVC011 10/07 A3013 RMK AO2 SLP202 60004 T01000072 10106 20094 58007
  • 251741Z 03013G17KT 10SM OVC010 09/07 A3014 RMK AO2 T00940072
  • 251703Z 03013G19KT 10SM OVC009 09/07 A3015 RMK AO2 CIG 008V013 T00940072
  • 251654Z 03009KT 10SM OVC011 09/07 A3016 RMK AO2 RAE22 CIG 008V014 SLP210 P0001 T00940072

TAF KLYH
Valid from the 25 at 18:00 until the 26 at 18:00 UTC


251720Z 2518/2618 04008KT P6SM -DZ OVC009
TEMPO 2519/2523 2SM -RA BR OVC003
FM260400 04008KT 4SM -DZ BR OVC003
FM260800 VRB02KT 2SM -DZ BR OVC003
FM261300 VRB02KT 4SM BR OVC007
FM261600 VRB02KT P6SM SCT009 BKN015
KZDC FIR / North America



MET'MAP, your aeronautical weather chart ! - Copyright ORBIFLY December 2007 - Disclaimer

ORBIFLY MET'MAP TEAM :

Programming & Development : Alexandra Zaïnal
Concept & original design : Baudouin d'Aumeries
Assistance for programming : Marc-Olivier Méhu
Technical & hardware support : Manuel Goepfert

Contact : metmap@orbifly.com




SOURCES & CREDITS :

   NOAA       Earth
Advisory